Time;durP1;ratioP1;P1;durP2;ratioP2;P2;SDS_P1;SDS_P2;PMS_P1;PMS_P2;Temp;Humidity;BMP_temperature;BMP_pressure;BME280_temperature;BME280_humidity;BME280_pressure;Samples;Min_cycle;Max_cycle;Signal;HPM_P1;HPM_P2
2022/06/04 00:02:19;;;;;;;2.35;1.33;;;;;;;;;;5171173;27;20233;-21
2022/06/04 00:04:46;;;;;;;2.53;1.10;;;;;;;;;;5174257;27;20237;-20
2022/06/04 00:07:15;;;;;;;2.60;1.20;;;;;;;;;;5173214;27;20234;-20
2022/06/04 00:15:29;;;;;;;4.10;1.40;;;;;;;;;;5173988;27;20285;-20
2022/06/04 00:15:30;;;;;;;3.03;1.20;;;;;;;;;;5173881;27;20233;-21
2022/06/04 00:17:57;;;;;;;1.55;0.98;;;;;;;;;;5167793;27;20226;-21
2022/06/04 00:20:25;;;;;;;5.47;1.35;;;;;;;;;;5157485;27;20228;-20
2022/06/04 00:22:58;;;;;;;4.10;1.50;;;;;;;;;;5173888;27;20234;-20
2022/06/04 00:25:25;;;;;;;1.83;1.38;;;;;;;;;;5173551;27;20229;-20
2022/06/04 00:27:53;;;;;;;4.68;1.67;;;;;;;;;;5169381;27;20223;-20
2022/06/04 00:30:20;;;;;;;3.20;1.50;;;;;;;;;;5173674;27;20684;-20
2022/06/04 00:32:48;;;;;;;2.78;1.25;;;;;;;;;;5173381;27;20234;-20
2022/06/04 00:35:15;;;;;;;3.10;1.40;;;;;;;;;;5173636;27;20644;-20
2022/06/04 00:37:43;;;;;;;1.95;1.30;;;;;;;;;;5173709;27;20234;-21
2022/06/04 00:40:12;;;;;;;3.90;1.38;;;;;;;;;;5172579;27;20222;-21
2022/06/04 00:42:39;;;;;;;2.70;1.33;;;;;;;;;;5173677;27;20229;-21
2022/06/04 00:45:25;;;;;;;4.38;1.50;;;;;;;;;;5158049;27;20732;-21
2022/06/04 00:47:53;;;;;;;2.42;1.40;;;;;;;;;;5162323;27;20718;-21
2022/06/04 00:50:21;;;;;;;4.82;1.50;;;;;;;;;;5161705;27;20228;-21
2022/06/04 00:52:49;;;;;;;3.90;1.88;;;;;;;;;;5173064;27;20241;-21
2022/06/04 00:55:18;;;;;;;4.15;1.48;;;;;;;;;;5173364;27;20230;-20
2022/06/04 00:58:09;;;;;;;2.80;1.40;;;;;;;;;;5173141;27;21025;-20
2022/06/04 01:00:38;;;;;;;1.85;1.50;;;;;;;;;;5156445;27;20681;-21
2022/06/04 01:03:19;;;;;;;3.00;1.63;;;;;;;;;;5173301;27;20237;-21
2022/06/04 01:05:52;;;;;;;2.22;1.70;;;;;;;;;;5172967;27;20234;-20
2022/06/04 01:08:28;;;;;;;2.72;1.77;;;;;;;;;;5173468;27;20230;-21
2022/06/04 01:11:00;;;;;;;4.05;2.10;;;;;;;;;;5173138;27;20644;-20
2022/06/04 01:13:34;;;;;;;8.15;1.77;;;;;;;;;;5172355;27;20238;-21
2022/06/04 01:16:03;;;;;;;2.70;1.77;;;;;;;;;;5154043;27;20230;-21
2022/06/04 01:18:34;;;;;;;3.67;1.73;;;;;;;;;;5173167;27;20283;-21
2022/06/04 01:21:03;;;;;;;5.43;1.60;;;;;;;;;;5172897;27;20684;-20
2022/06/04 01:23:42;;;;;;;3.40;1.90;;;;;;;;;;5165137;27;20260;-21
2022/06/04 01:26:17;;;;;;;4.55;2.00;;;;;;;;;;5168141;27;20783;-20
2022/06/04 01:28:46;;;;;;;3.30;1.80;;;;;;;;;;5164460;27;20684;-20
2022/06/04 01:31:14;;;;;;;3.55;1.63;;;;;;;;;;5169850;27;20230;-21
2022/06/04 01:33:41;;;;;;;3.28;1.98;;;;;;;;;;5165229;27;20239;-21
2022/06/04 01:36:10;;;;;;;2.28;1.80;;;;;;;;;;5174683;27;20231;-20
2022/06/04 01:38:38;;;;;;;3.53;1.77;;;;;;;;;;5171989;27;20258;-21
2022/06/04 01:41:07;;;;;;;4.10;1.90;;;;;;;;;;5164960;27;20222;-20
2022/06/04 01:43:37;;;;;;;3.42;2.10;;;;;;;;;;5176038;27;20236;-20
2022/06/04 01:46:07;;;;;;;3.90;2.05;;;;;;;;;;5176469;27;20229;-21
2022/06/04 01:48:35;;;;;;;4.85;2.10;;;;;;;;;;5176213;27;20253;-20
2022/06/04 01:51:04;;;;;;;3.63;1.90;;;;;;;;;;5176383;27;20234;-21
2022/06/04 01:53:32;;;;;;;3.28;2.10;;;;;;;;;;5176340;27;20234;-21
2022/06/04 01:56:00;;;;;;;2.95;1.95;;;;;;;;;;5161912;27;20218;-20
2022/06/04 01:58:28;;;;;;;4.43;1.90;;;;;;;;;;5175809;27;20811;-21
2022/06/04 02:00:57;;;;;;;3.28;2.17;;;;;;;;;;5175413;27;20222;-20
2022/06/04 02:03:27;;;;;;;5.93;2.35;;;;;;;;;;5175904;27;20242;-21
2022/06/04 02:05:54;;;;;;;5.63;2.33;;;;;;;;;;5176030;27;20252;-21
2022/06/04 02:08:23;;;;;;;4.20;1.83;;;;;;;;;;5176666;27;20222;-21
2022/06/04 02:10:52;;;;;;;5.00;2.15;;;;;;;;;;5179513;27;20238;-20
2022/06/04 02:13:19;;;;;;;2.80;2.10;;;;;;;;;;5175367;27;20261;-20
2022/06/04 02:15:49;;;;;;;4.20;2.28;;;;;;;;;;5175774;27;20226;-20
2022/06/04 02:18:18;;;;;;;4.97;2.00;;;;;;;;;;5176218;27;20230;-21
2022/06/04 02:20:45;;;;;;;3.47;2.03;;;;;;;;;;5174602;27;20200;-20
2022/06/04 02:23:13;;;;;;;3.58;2.03;;;;;;;;;;5170216;27;20232;-20
2022/06/04 02:25:40;;;;;;;5.65;2.28;;;;;;;;;;5168634;27;20716;-20
2022/06/04 02:28:08;;;;;;;5.88;2.25;;;;;;;;;;5162313;27;20420;-21
2022/06/04 02:30:38;;;;;;;2.90;1.83;;;;;;;;;;5173344;27;20230;-20
2022/06/04 02:33:08;;;;;;;3.80;2.13;;;;;;;;;;5178035;27;20238;-21
2022/06/04 02:35:38;;;;;;;3.10;1.88;;;;;;;;;;5175504;27;20224;-20
2022/06/04 02:38:06;;;;;;;4.30;2.05;;;;;;;;;;5175457;27;20252;-21
2022/06/04 02:40:35;;;;;;;4.57;2.15;;;;;;;;;;5170775;27;20226;-20
2022/06/04 02:43:04;;;;;;;5.07;2.25;;;;;;;;;;5164218;27;20702;-21
2022/06/04 02:45:32;;;;;;;4.47;2.08;;;;;;;;;;5170981;27;20304;-20
2022/06/04 02:48:00;;;;;;;4.80;2.17;;;;;;;;;;5164930;27;20263;-21
2022/06/04 02:50:28;;;;;;;4.45;2.00;;;;;;;;;;5170624;27;20368;-21
2022/06/04 02:52:57;;;;;;;2.50;2.00;;;;;;;;;;5163400;27;20231;-21
2022/06/04 02:55:26;;;;;;;6.03;2.10;;;;;;;;;;5168462;27;20233;-21
2022/06/04 02:57:54;;;;;;;4.18;2.22;;;;;;;;;;5175212;27;20712;-21
2022/06/04 03:00:22;;;;;;;2.47;1.92;;;;;;;;;;5172233;27;20261;-21
2022/06/04 03:02:49;;;;;;;3.45;2.30;;;;;;;;;;5161596;27;20222;-21
2022/06/04 03:05:17;;;;;;;3.90;2.53;;;;;;;;;;5163435;27;20954;-21
2022/06/04 03:07:45;;;;;;;8.18;2.28;;;;;;;;;;5167355;27;20719;-21
2022/06/04 03:10:15;;;;;;;2.67;2.03;;;;;;;;;;5174861;27;20317;-21
2022/06/04 03:12:42;;;;;;;3.25;2.35;;;;;;;;;;5168494;27;20731;-20
2022/06/04 03:15:11;;;;;;;6.15;2.42;;;;;;;;;;5168833;27;20230;-21
2022/06/04 03:17:38;;;;;;;10.88;2.40;;;;;;;;;;5164508;27;20688;-21
2022/06/04 03:20:07;;;;;;;5.20;2.38;;;;;;;;;;5174553;27;20645;-21
2022/06/04 03:22:34;;;;;;;4.63;2.60;;;;;;;;;;5170174;27;20253;-21
2022/06/04 03:25:02;;;;;;;4.25;2.15;;;;;;;;;;5166881;27;20250;-21
2022/06/04 03:27:31;;;;;;;5.40;2.40;;;;;;;;;;5150340;27;20766;-20
2022/06/04 03:29:58;;;;;;;7.22;2.72;;;;;;;;;;5172820;27;20966;-20
2022/06/04 03:32:25;;;;;;;6.80;3.17;;;;;;;;;;5166710;27;20232;-21
2022/06/04 03:34:53;;;;;;;4.40;2.40;;;;;;;;;;5169578;27;20324;-21
2022/06/04 03:37:20;;;;;;;10.10;2.97;;;;;;;;;;5147698;27;20297;-21
2022/06/04 03:39:48;;;;;;;5.88;2.67;;;;;;;;;;5174421;27;20237;-21
2022/06/04 03:42:15;;;;;;;8.10;2.50;;;;;;;;;;5164717;27;20228;-21
2022/06/04 03:44:47;;;;;;;8.77;2.97;;;;;;;;;;5160451;27;20238;-21
2022/06/04 03:47:16;;;;;;;4.70;2.50;;;;;;;;;;5163675;27;20275;-21
2022/06/04 03:49:43;;;;;;;6.50;2.78;;;;;;;;;;5170507;27;20230;-21
2022/06/04 03:52:11;;;;;;;4.95;2.42;;;;;;;;;;5156875;27;20223;-21
2022/06/04 03:54:53;;;;;;;8.93;2.80;;;;;;;;;;5167293;27;20233;-21
2022/06/04 03:57:39;;;;;;;3.55;2.40;;;;;;;;;;5174185;27;21120;-21
2022/06/04 04:00:09;;;;;;;6.95;2.53;;;;;;;;;;5167925;27;20722;-21
2022/06/04 04:02:37;;;;;;;3.13;2.40;;;;;;;;;;5167859;27;20230;-21
2022/06/04 04:05:05;;;;;;;7.00;2.60;;;;;;;;;;5165988;27;20238;-20
2022/06/04 04:07:32;;;;;;;6.82;2.53;;;;;;;;;;5158406;27;20261;-20
2022/06/04 04:10:00;;;;;;;4.95;2.30;;;;;;;;;;5167262;27;20266;-21
2022/06/04 04:12:28;;;;;;;4.97;2.67;;;;;;;;;;5173734;27;20232;-20
2022/06/04 04:14:55;;;;;;;5.18;2.53;;;;;;;;;;5168215;27;20246;-21
2022/06/04 04:17:24;;;;;;;3.50;2.58;;;;;;;;;;5154607;27;20235;-21
2022/06/04 04:19:51;;;;;;;6.13;2.65;;;;;;;;;;5166633;27;21252;-21
2022/06/04 04:22:19;;;;;;;6.25;2.33;;;;;;;;;;5173003;27;20233;-21
2022/06/04 04:24:46;;;;;;;4.38;2.38;;;;;;;;;;5173814;27;20238;-21
2022/06/04 04:27:14;;;;;;;6.93;2.60;;;;;;;;;;5173491;27;20232;-21
2022/06/04 04:29:42;;;;;;;7.22;2.83;;;;;;;;;;5173894;27;20233;-20
2022/06/04 04:32:09;;;;;;;8.18;3.13;;;;;;;;;;5158957;27;20226;-21
2022/06/04 04:34:38;;;;;;;7.80;3.22;;;;;;;;;;5172695;27;20230;-20
2022/06/04 04:37:05;;;;;;;8.65;3.38;;;;;;;;;;5168663;27;20277;-20
2022/06/04 04:39:32;;;;;;;5.93;3.00;;;;;;;;;;5159578;27;20231;-21
2022/06/04 04:42:00;;;;;;;7.15;3.17;;;;;;;;;;5165412;27;20230;-21
2022/06/04 04:44:28;;;;;;;5.03;2.88;;;;;;;;;;5167025;27;20811;-21
2022/06/04 04:46:55;;;;;;;6.10;3.40;;;;;;;;;;5151042;27;20237;-21
2022/06/04 04:49:22;;;;;;;7.25;2.72;;;;;;;;;;5161213;27;20218;-21
2022/06/04 04:51:51;;;;;;;8.10;3.05;;;;;;;;;;5165716;27;20236;-21
2022/06/04 04:54:18;;;;;;;7.07;3.70;;;;;;;;;;5166923;27;20226;-20
2022/06/04 04:56:46;;;;;;;7.32;3.30;;;;;;;;;;5173532;27;20712;-20
2022/06/04 04:59:14;;;;;;;7.60;3.65;;;;;;;;;;5173682;27;20230;-21
2022/06/04 05:01:41;;;;;;;5.93;3.10;;;;;;;;;;5173091;27;20233;-21
2022/06/04 05:04:09;;;;;;;4.32;2.70;;;;;;;;;;5161885;27;20345;-21
2022/06/04 05:06:36;;;;;;;5.28;3.22;;;;;;;;;;5164083;27;20735;-21
2022/06/04 05:09:05;;;;;;;7.20;3.20;;;;;;;;;;5163017;27;20218;-20
2022/06/04 05:11:33;;;;;;;6.60;3.00;;;;;;;;;;5146826;27;20802;-21
2022/06/04 05:14:00;;;;;;;5.05;3.00;;;;;;;;;;5168736;27;20230;-21
2022/06/04 05:16:28;;;;;;;5.35;3.55;;;;;;;;;;5160731;27;20238;-21
2022/06/04 05:18:56;;;;;;;6.32;3.10;;;;;;;;;;5172924;27;20309;-20
2022/06/04 05:21:25;;;;;;;4.18;3.22;;;;;;;;;;5164053;27;20957;-20
2022/06/04 05:23:54;;;;;;;6.53;3.40;;;;;;;;;;5169317;27;20234;-21
2022/06/04 05:26:23;;;;;;;7.10;3.50;;;;;;;;;;5163038;27;20226;-21
2022/06/04 05:28:50;;;;;;;5.50;2.92;;;;;;;;;;5161045;27;20252;-20
2022/06/04 05:31:18;;;;;;;4.18;3.33;;;;;;;;;;5165584;27;20353;-20
2022/06/04 05:33:45;;;;;;;6.47;3.47;;;;;;;;;;5161234;27;20252;-21
2022/06/04 05:36:13;;;;;;;5.22;3.47;;;;;;;;;;5163360;27;20230;-21
2022/06/04 05:38:41;;;;;;;6.85;3.33;;;;;;;;;;5145322;27;20237;-21
2022/06/04 05:41:08;;;;;;;7.72;3.33;;;;;;;;;;5171493;27;20971;-21
2022/06/04 05:43:38;;;;;;;6.20;3.65;;;;;;;;;;5172544;27;20234;-21
2022/06/04 05:46:07;;;;;;;6.50;3.08;;;;;;;;;;5166572;27;20913;-20
2022/06/04 05:48:36;;;;;;;6.00;3.33;;;;;;;;;;5159432;27;20225;-21
2022/06/04 05:51:04;;;;;;;5.22;3.00;;;;;;;;;;5163250;27;20259;-21
2022/06/04 05:53:31;;;;;;;6.90;3.25;;;;;;;;;;5172462;27;20222;-21
2022/06/04 05:55:58;;;;;;;6.65;3.38;;;;;;;;;;5165308;27;20238;-21
2022/06/04 05:58:26;;;;;;;5.28;3.17;;;;;;;;;;5169592;27;20226;-21
2022/06/04 06:01:00;;;;;;;6.22;3.13;;;;;;;;;;5164954;27;20981;-21
2022/06/04 06:03:28;;;;;;;7.30;3.60;;;;;;;;;;5156736;27;20321;-21
2022/06/04 06:05:55;;;;;;;6.28;3.40;;;;;;;;;;5159856;27;20232;-21
2022/06/04 06:08:23;;;;;;;4.47;2.92;;;;;;;;;;5155866;27;20233;-21
2022/06/04 06:10:50;;;;;;;4.03;3.30;;;;;;;;;;5163003;27;20235;-20
2022/06/04 06:13:17;;;;;;;8.38;3.40;;;;;;;;;;5169021;27;20237;-20
2022/06/04 06:15:45;;;;;;;5.28;3.42;;;;;;;;;;5163261;27;20234;-20
2022/06/04 06:18:14;;;;;;;6.82;3.40;;;;;;;;;;5168797;27;20251;-20
2022/06/04 06:20:42;;;;;;;7.07;3.40;;;;;;;;;;5171515;27;20979;-21
2022/06/04 06:23:10;;;;;;;5.75;3.38;;;;;;;;;;5170231;27;20234;-21
2022/06/04 06:25:37;;;;;;;7.82;3.75;;;;;;;;;;5166139;27;20226;-21
2022/06/04 06:28:05;;;;;;;7.00;3.38;;;;;;;;;;5168464;27;20230;-21
2022/06/04 06:30:34;;;;;;;4.68;3.20;;;;;;;;;;5160973;27;20235;-20
2022/06/04 06:33:03;;;;;;;8.88;3.78;;;;;;;;;;5154835;27;20233;-20
2022/06/04 06:35:31;;;;;;;9.05;3.80;;;;;;;;;;5156851;27;20245;-21
2022/06/04 06:37:59;;;;;;;8.23;3.50;;;;;;;;;;5161870;27;20231;-21
2022/06/04 06:40:26;;;;;;;5.93;3.50;;;;;;;;;;5169558;27;20226;-21
2022/06/04 06:42:53;;;;;;;12.65;3.83;;;;;;;;;;5159875;27;20239;-21
2022/06/04 06:45:21;;;;;;;9.07;3.45;;;;;;;;;;5166863;27;20235;-21
2022/06/04 06:47:48;;;;;;;6.63;3.70;;;;;;;;;;5151005;27;20226;-21
2022/06/04 06:50:16;;;;;;;10.05;3.15;;;;;;;;;;5161341;27;20226;-21
2022/06/04 06:52:45;;;;;;;7.82;4.10;;;;;;;;;;5163572;27;20258;-20
2022/06/04 06:55:12;;;;;;;8.63;3.60;;;;;;;;;;5154850;27;20222;-20
2022/06/04 06:57:39;;;;;;;9.95;3.58;;;;;;;;;;5171424;27;20696;-20
2022/06/04 07:00:07;;;;;;;8.55;3.67;;;;;;;;;;5170657;27;20221;-20
2022/06/04 07:02:35;;;;;;;15.05;3.67;;;;;;;;;;5172017;27;20232;-20
2022/06/04 07:05:02;;;;;;;11.07;4.20;;;;;;;;;;5166988;27;20230;-21
2022/06/04 07:07:30;;;;;;;8.27;3.70;;;;;;;;;;5167465;27;20396;-21
2022/06/04 07:09:58;;;;;;;12.05;4.25;;;;;;;;;;5164482;27;20237;-21
2022/06/04 07:12:26;;;;;;;7.53;4.15;;;;;;;;;;5164786;27;20239;-21
2022/06/04 07:14:53;;;;;;;9.18;3.72;;;;;;;;;;5166274;27;20223;-21
2022/06/04 07:17:21;;;;;;;9.63;4.18;;;;;;;;;;5170614;27;20299;-20
2022/06/04 07:19:49;;;;;;;11.05;4.55;;;;;;;;;;5171508;27;20226;-20
2022/06/04 07:22:16;;;;;;;8.60;3.78;;;;;;;;;;5153648;27;20234;-21
2022/06/04 07:24:44;;;;;;;5.43;3.65;;;;;;;;;;5154577;27;20230;-20
2022/06/04 07:27:13;;;;;;;6.35;3.63;;;;;;;;;;5155894;27;20232;-20
2022/06/04 07:29:40;;;;;;;11.73;3.75;;;;;;;;;;5159233;27;20231;-21
2022/06/04 07:32:09;;;;;;;7.18;3.58;;;;;;;;;;5173169;27;20276;-21
2022/06/04 07:34:36;;;;;;;11.15;4.03;;;;;;;;;;5170047;27;20226;-20
2022/06/04 07:37:05;;;;;;;6.35;4.30;;;;;;;;;;5161505;27;20705;-21
2022/06/04 07:39:32;;;;;;;11.07;4.50;;;;;;;;;;5159158;27;20421;-21
2022/06/04 07:42:00;;;;;;;8.70;4.18;;;;;;;;;;5164782;27;20234;-21
2022/06/04 07:44:28;;;;;;;8.73;4.40;;;;;;;;;;5170202;27;20230;-23
2022/06/04 07:46:56;;;;;;;8.38;4.05;;;;;;;;;;5159995;27;20709;-21
2022/06/04 07:49:23;;;;;;;7.60;4.30;;;;;;;;;;5168440;27;20230;-22
2022/06/04 07:51:51;;;;;;;7.72;4.57;;;;;;;;;;5158632;27;20627;-22
2022/06/04 07:54:19;;;;;;;10.35;4.28;;;;;;;;;;5158358;27;20436;-21
2022/06/04 07:56:46;;;;;;;4.65;3.72;;;;;;;;;;5167450;27;20234;-21
2022/06/04 07:59:15;;;;;;;11.88;3.92;;;;;;;;;;5166125;27;20230;-20
2022/06/04 08:01:44;;;;;;;6.70;3.95;;;;;;;;;;5162906;27;20461;-22
2022/06/04 08:04:12;;;;;;;7.60;3.63;;;;;;;;;;5169373;27;20230;-21
2022/06/04 08:06:40;;;;;;;9.50;3.75;;;;;;;;;;5166883;27;20218;-21
2022/06/04 08:09:07;;;;;;;12.70;4.50;;;;;;;;;;5163136;27;20238;-21
2022/06/04 08:11:36;;;;;;;7.65;4.15;;;;;;;;;;5155988;27;20222;-21
2022/06/04 08:14:07;;;;;;;7.03;3.90;;;;;;;;;;5167593;27;20240;-21
2022/06/04 08:16:35;;;;;;;9.55;3.80;;;;;;;;;;5161015;27;20245;-21
2022/06/04 08:19:04;;;;;;;7.22;3.92;;;;;;;;;;5168734;27;20287;-21
2022/06/04 08:21:31;;;;;;;5.40;3.60;;;;;;;;;;5166156;27;20225;-20
2022/06/04 08:23:59;;;;;;;6.80;3.63;;;;;;;;;;5160402;27;20659;-21
2022/06/04 08:26:26;;;;;;;5.78;3.88;;;;;;;;;;5168118;27;20253;-21
2022/06/04 08:28:54;;;;;;;6.53;4.15;;;;;;;;;;5162326;27;20227;-21
2022/06/04 08:31:21;;;;;;;5.35;3.92;;;;;;;;;;5155742;27;20226;-22
2022/06/04 08:33:49;;;;;;;9.00;4.10;;;;;;;;;;5161465;27;20234;-21
2022/06/04 08:36:19;;;;;;;4.38;3.35;;;;;;;;;;5156425;27;20238;-21
2022/06/04 08:38:46;;;;;;;4.65;3.78;;;;;;;;;;5166441;27;20240;-20
2022/06/04 08:41:21;;;;;;;6.70;3.50;;;;;;;;;;5166725;27;20230;-21
2022/06/04 08:43:50;;;;;;;10.88;4.07;;;;;;;;;;5162899;27;20675;-21
2022/06/04 08:46:18;;;;;;;5.45;3.95;;;;;;;;;;5169243;27;20226;-21
2022/06/04 08:48:47;;;;;;;5.47;3.92;;;;;;;;;;5163375;27;20668;-22
2022/06/04 08:51:19;;;;;;;5.88;3.78;;;;;;;;;;5173215;27;20225;-21
2022/06/04 08:53:47;;;;;;;6.75;3.67;;;;;;;;;;5171076;27;20230;-22
2022/06/04 08:59:02;;;;;;;5.20;3.53;;;;;;;;;;5167749;27;20256;-21
2022/06/04 09:01:30;;;;;;;7.47;3.85;;;;;;;;;;5168605;27;20282;-21
2022/06/04 09:04:00;;;;;;;4.18;3.13;;;;;;;;;;5157887;27;21035;-21
2022/06/04 09:06:31;;;;;;;6.22;3.85;;;;;;;;;;5160127;27;20422;-21
2022/06/04 09:09:00;;;;;;;9.35;3.70;;;;;;;;;;5166496;27;20421;-21
2022/06/04 09:11:28;;;;;;;7.53;3.25;;;;;;;;;;5165753;27;20230;-21
2022/06/04 09:14:03;;;;;;;5.95;2.80;;;;;;;;;;5170097;27;20230;-21
2022/06/04 09:16:31;;;;;;;5.05;3.28;;;;;;;;;;5166587;27;20237;-21
2022/06/04 09:19:00;;;;;;;5.80;3.10;;;;;;;;;;5171017;27;20261;-22
2022/06/04 09:21:27;;;;;;;6.40;3.35;;;;;;;;;;5170317;27;20236;-22
2022/06/04 09:23:56;;;;;;;4.28;3.00;;;;;;;;;;5173618;27;20230;-21
2022/06/04 09:26:25;;;;;;;6.47;3.35;;;;;;;;;;5174413;27;20237;-21
2022/06/04 09:28:55;;;;;;;4.05;2.92;;;;;;;;;;5166768;27;21840;-21
2022/06/04 09:31:24;;;;;;;6.70;3.30;;;;;;;;;;5167768;27;21130;-21
2022/06/04 09:33:53;;;;;;;5.65;3.70;;;;;;;;;;5165491;27;20328;-21
2022/06/04 09:36:23;;;;;;;6.60;3.38;;;;;;;;;;5173104;27;20256;-21
2022/06/04 09:38:59;;;;;;;5.60;3.83;;;;;;;;;;5156206;27;20234;-22
2022/06/04 09:41:27;;;;;;;9.23;3.40;;;;;;;;;;5169232;27;20238;-21
2022/06/04 09:44:01;;;;;;;5.15;3.72;;;;;;;;;;5167248;27;20282;-21
2022/06/04 09:46:29;;;;;;;8.75;4.10;;;;;;;;;;5148477;27;20773;-21
2022/06/04 09:48:56;;;;;;;7.85;4.05;;;;;;;;;;5143176;27;20229;-21
2022/06/04 09:51:24;;;;;;;4.55;3.80;;;;;;;;;;5137602;27;20232;-21
2022/06/04 09:53:53;;;;;;;8.00;3.90;;;;;;;;;;5138001;27;20257;-21
2022/06/04 09:56:28;;;;;;;5.78;3.80;;;;;;;;;;5142903;27;20713;-22
2022/06/04 09:58:55;;;;;;;6.03;3.90;;;;;;;;;;5141401;27;21171;-22
2022/06/04 10:01:23;;;;;;;6.32;3.75;;;;;;;;;;5138115;27;20242;-20
2022/06/04 10:03:58;;;;;;;5.07;3.97;;;;;;;;;;5132311;27;20275;-21
2022/06/04 10:06:26;;;;;;;8.10;3.95;;;;;;;;;;5146674;27;20226;-21
2022/06/04 10:11:37;;;;;;;6.63;3.75;;;;;;;;;;5108986;27;20235;-20
2022/06/04 10:14:04;;;;;;;9.63;3.70;;;;;;;;;;5132841;27;20223;-21
2022/06/04 10:16:36;;;;;;;7.13;4.07;;;;;;;;;;5146743;27;20226;-21
2022/06/04 10:19:05;;;;;;;5.25;3.20;;;;;;;;;;5143377;27;20274;-22
2022/06/04 10:21:34;;;;;;;5.05;3.65;;;;;;;;;;5139417;27;20232;-20
2022/06/04 10:24:06;;;;;;;6.75;3.92;;;;;;;;;;5144231;27;20330;-21
2022/06/04 10:26:42;;;;;;;4.90;3.90;;;;;;;;;;5137275;27;20239;-21
2022/06/04 10:29:14;;;;;;;5.28;3.55;;;;;;;;;;5137688;27;20234;-20
2022/06/04 10:31:42;;;;;;;4.93;3.40;;;;;;;;;;5141094;27;20227;-21
2022/06/04 10:34:16;;;;;;;5.43;3.67;;;;;;;;;;5136054;27;20227;-21
2022/06/04 10:36:47;;;;;;;5.80;3.63;;;;;;;;;;5147829;27;20290;-21
2022/06/04 10:39:18;;;;;;;6.60;3.53;;;;;;;;;;5137394;27;20283;-21
2022/06/04 10:41:50;;;;;;;4.03;3.63;;;;;;;;;;5136904;27;20230;-21
2022/06/04 10:44:30;;;;;;;5.32;3.40;;;;;;;;;;5150366;27;20248;-22
2022/06/04 10:47:05;;;;;;;6.72;3.67;;;;;;;;;;5169562;27;20602;-21
2022/06/04 10:49:37;;;;;;;6.65;3.38;;;;;;;;;;5165880;27;20234;-21
2022/06/04 10:52:06;;;;;;;5.28;3.55;;;;;;;;;;5180663;27;20233;-21
2022/06/04 10:54:34;;;;;;;6.22;3.25;;;;;;;;;;5174574;27;20237;-21
2022/06/04 10:57:08;;;;;;;6.18;3.67;;;;;;;;;;5157349;27;20234;-21
2022/06/04 10:59:38;;;;;;;6.38;4.03;;;;;;;;;;5167403;27;20301;-20
2022/06/04 11:02:10;;;;;;;6.25;3.45;;;;;;;;;;5169385;27;20732;-23
2022/06/04 11:04:38;;;;;;;6.65;3.80;;;;;;;;;;5162770;27;20523;-21
2022/06/04 11:07:12;;;;;;;6.13;3.53;;;;;;;;;;5163380;27;20226;-22
2022/06/04 11:09:40;;;;;;;6.63;4.13;;;;;;;;;;5175546;27;20234;-19
2022/06/04 11:12:13;;;;;;;6.68;3.72;;;;;;;;;;5163967;27;20727;-21
2022/06/04 11:14:43;;;;;;;6.93;3.35;;;;;;;;;;5162557;27;21022;-21
2022/06/04 11:17:12;;;;;;;9.20;3.85;;;;;;;;;;5163235;27;20246;-21
2022/06/04 11:19:42;;;;;;;5.90;3.70;;;;;;;;;;5164408;27;20289;-21
2022/06/04 11:22:11;;;;;;;5.10;3.63;;;;;;;;;;5167747;27;20229;-21
2022/06/04 11:24:40;;;;;;;8.35;4.03;;;;;;;;;;5168573;27;20635;-21
2022/06/04 11:27:08;;;;;;;4.80;3.58;;;;;;;;;;5165916;27;20885;-22
2022/06/04 11:29:38;;;;;;;4.75;3.85;;;;;;;;;;5174308;27;20229;-21
2022/06/04 11:32:08;;;;;;;7.10;4.03;;;;;;;;;;5162499;27;20494;-22
2022/06/04 11:35:02;;;;;;;9.88;4.28;;;;;;;;;;5167231;27;20256;-22
2022/06/04 11:37:36;;;;;;;10.57;4.78;;;;;;;;;;5159079;27;20237;-22
2022/06/04 11:40:07;;;;;;;8.93;3.92;;;;;;;;;;5161250;27;20243;-22
2022/06/04 11:42:36;;;;;;;10.40;4.43;;;;;;;;;;5165866;27;20234;-19
2022/06/04 11:45:18;;;;;;;7.05;4.20;;;;;;;;;;5168915;27;20233;-22
2022/06/04 11:47:51;;;;;;;4.57;4.18;;;;;;;;;;5130739;27;21105;-22
2022/06/04 11:50:19;;;;;;;5.50;4.20;;;;;;;;;;5168118;27;20280;-20
2022/06/04 11:52:49;;;;;;;5.82;4.50;;;;;;;;;;5168319;27;20226;-22
2022/06/04 11:55:18;;;;;;;7.05;4.15;;;;;;;;;;5165396;27;20233;-20
2022/06/04 11:57:49;;;;;;;7.03;4.20;;;;;;;;;;5165711;27;20701;-20
2022/06/04 12:00:17;;;;;;;6.32;4.50;;;;;;;;;;5167552;27;20234;-21
2022/06/04 12:02:51;;;;;;;5.18;4.10;;;;;;;;;;5162471;27;20320;-21
2022/06/04 12:05:23;;;;;;;5.28;4.00;;;;;;;;;;5171150;27;20233;-21
2022/06/04 12:07:51;;;;;;;5.50;3.80;;;;;;;;;;5164330;27;20903;-22
2022/06/04 12:10:23;;;;;;;5.68;4.40;;;;;;;;;;5165371;27;20234;-21
2022/06/04 12:12:53;;;;;;;6.70;4.13;;;;;;;;;;5162148;27;20238;-21
2022/06/04 12:15:21;;;;;;;5.82;4.28;;;;;;;;;;5167229;27;20234;-21
2022/06/04 12:17:49;;;;;;;8.25;3.75;;;;;;;;;;5158503;27;20235;-22
2022/06/04 12:26:16;;;;;;;7.13;4.10;;;;;;;;;;5164128;27;20230;-21
2022/06/04 12:28:43;;;;;;;6.70;4.07;;;;;;;;;;5162301;27;20405;-22
2022/06/04 12:31:10;;;;;;;6.05;3.88;;;;;;;;;;5167117;27;20232;-21
2022/06/04 12:33:39;;;;;;;8.82;3.80;;;;;;;;;;5166556;27;20237;-21
2022/06/04 12:36:09;;;;;;;6.43;3.83;;;;;;;;;;5162341;27;20229;-21
2022/06/04 12:38:37;;;;;;;5.30;3.78;;;;;;;;;;5165979;27;20336;-20
2022/06/04 12:41:06;;;;;;;7.20;3.92;;;;;;;;;;5163622;27;20241;-21
2022/06/04 12:43:33;;;;;;;4.72;3.83;;;;;;;;;;5162160;27;20716;-21
2022/06/04 12:46:08;;;;;;;5.22;3.58;;;;;;;;;;5158978;27;20239;-21
2022/06/04 12:48:38;;;;;;;5.85;3.60;;;;;;;;;;5168764;27;20229;-21
2022/06/04 12:51:08;;;;;;;3.45;3.15;;;;;;;;;;5163324;27;20234;-22
2022/06/04 12:53:36;;;;;;;5.18;3.70;;;;;;;;;;5162860;27;20260;-20
2022/06/04 12:56:05;;;;;;;6.25;3.50;;;;;;;;;;5163585;27;20273;-21
2022/06/04 12:58:33;;;;;;;6.88;3.47;;;;;;;;;;5165952;27;20239;-21
2022/06/04 13:01:01;;;;;;;4.60;3.40;;;;;;;;;;5166599;27;20223;-22
2022/06/04 13:03:33;;;;;;;8.70;3.75;;;;;;;;;;5166747;27;20236;-21
2022/06/04 13:06:16;;;;;;;6.60;3.40;;;;;;;;;;5167410;27;20237;-21
2022/06/04 13:08:47;;;;;;;6.35;3.97;;;;;;;;;;5157255;27;20240;-20
2022/06/04 13:11:18;;;;;;;4.50;3.67;;;;;;;;;;5156636;27;20277;-21
2022/06/04 13:13:46;;;;;;;6.93;3.40;;;;;;;;;;5161906;27;20260;-21
2022/06/04 13:16:16;;;;;;;6.57;3.47;;;;;;;;;;5163084;27;20692;-21
2022/06/04 13:18:43;;;;;;;3.85;3.47;;;;;;;;;;5161422;27;20237;-21
2022/06/04 13:21:11;;;;;;;5.40;3.35;;;;;;;;;;5158876;27;20234;-21
2022/06/04 13:23:41;;;;;;;4.30;3.60;;;;;;;;;;5162461;27;20230;-21
2022/06/04 13:26:26;;;;;;;4.28;3.50;;;;;;;;;;5159941;27;20237;-21
2022/06/04 13:28:53;;;;;;;3.85;3.38;;;;;;;;;;5158696;27;21831;-21
2022/06/04 13:31:21;;;;;;;4.30;3.50;;;;;;;;;;5169438;27;21006;-22
2022/06/04 13:33:49;;;;;;;4.38;3.47;;;;;;;;;;5167684;27;20233;-21
2022/06/04 13:36:17;;;;;;;4.32;3.10;;;;;;;;;;5170483;27;20238;-21
2022/06/04 13:38:44;;;;;;;4.97;3.35;;;;;;;;;;5170042;27;20221;-21
2022/06/04 13:41:16;;;;;;;5.50;3.35;;;;;;;;;;5162122;27;20245;-20
2022/06/04 13:43:47;;;;;;;4.72;3.70;;;;;;;;;;5169274;27;20230;-21
2022/06/04 13:46:15;;;;;;;5.22;3.70;;;;;;;;;;5174421;27;20263;-21
2022/06/04 13:48:49;;;;;;;4.65;3.47;;;;;;;;;;5178969;27;20227;-21
2022/06/04 13:51:18;;;;;;;5.45;3.40;;;;;;;;;;5160191;27;20728;-22
2022/06/04 13:53:47;;;;;;;5.05;3.35;;;;;;;;;;5175137;27;20237;-21
2022/06/04 13:56:15;;;;;;;4.35;3.20;;;;;;;;;;5167609;27;20230;-21
2022/06/04 13:58:43;;;;;;;6.60;3.70;;;;;;;;;;5181358;27;20237;-20
2022/06/04 14:01:12;;;;;;;4.70;3.50;;;;;;;;;;5173537;27;20249;-20
2022/06/04 14:03:40;;;;;;;3.42;2.95;;;;;;;;;;5180292;27;20846;-21
2022/06/04 14:06:09;;;;;;;4.28;3.53;;;;;;;;;;5170220;27;20230;-21
2022/06/04 14:08:45;;;;;;;4.10;3.25;;;;;;;;;;5169910;27;20234;-21
2022/06/04 14:11:16;;;;;;;4.18;3.45;;;;;;;;;;5171011;27;20231;-21
2022/06/04 14:13:52;;;;;;;4.95;3.55;;;;;;;;;;5160746;27;20230;-21
2022/06/04 14:16:25;;;;;;;4.03;3.63;;;;;;;;;;5170782;27;20234;-21
2022/06/04 14:19:09;;;;;;;4.05;3.50;;;;;;;;;;5165628;27;20277;-20
2022/06/04 14:21:40;;;;;;;5.45;3.58;;;;;;;;;;5169894;27;20237;-21
2022/06/04 14:24:11;;;;;;;5.10;3.47;;;;;;;;;;5163667;27;20226;-22
2022/06/04 14:26:41;;;;;;;4.65;3.58;;;;;;;;;;5176071;27;20272;-21
2022/06/04 14:29:11;;;;;;;4.03;3.35;;;;;;;;;;5163091;27;20238;-21
2022/06/04 14:31:43;;;;;;;4.60;3.97;;;;;;;;;;5178348;27;20230;-21
2022/06/04 14:34:10;;;;;;;5.80;3.60;;;;;;;;;;5158244;27;20947;-20
2022/06/04 14:36:45;;;;;;;6.20;3.67;;;;;;;;;;5167186;27;20237;-21
2022/06/04 14:39:13;;;;;;;5.95;3.63;;;;;;;;;;5165388;27;20226;-21
2022/06/04 14:41:45;;;;;;;5.75;3.70;;;;;;;;;;5171845;27;20242;-21
2022/06/04 14:44:19;;;;;;;4.55;3.67;;;;;;;;;;5162945;27;20269;-21
2022/06/04 14:46:52;;;;;;;5.72;3.50;;;;;;;;;;5160359;27;20251;-20
2022/06/04 14:49:38;;;;;;;4.53;3.30;;;;;;;;;;5166698;27;20261;-22
2022/06/04 14:52:18;;;;;;;7.60;3.42;;;;;;;;;;5167810;27;20230;-22
2022/06/04 14:54:47;;;;;;;4.07;3.47;;;;;;;;;;5168344;27;20258;-21
2022/06/04 14:57:51;;;;;;;4.15;3.40;;;;;;;;;;5160362;27;20443;-21
2022/06/04 15:00:23;;;;;;;4.78;3.60;;;;;;;;;;5163793;27;20240;-20
2022/06/04 15:02:58;;;;;;;3.65;3.10;;;;;;;;;;5162545;27;20732;-22
2022/06/04 15:05:28;;;;;;;3.47;3.13;;;;;;;;;;5156530;27;20231;-21
2022/06/04 15:08:00;;;;;;;5.55;3.60;;;;;;;;;;5160883;27;20230;-21
2022/06/04 15:10:29;;;;;;;3.95;3.53;;;;;;;;;;5167456;27;20724;-21
2022/06/04 15:13:07;;;;;;;4.00;3.20;;;;;;;;;;5163000;27;20232;-21